sensor_id;sensor_type;location;lat;lon;timestamp;P1;durP1;ratioP1;P2;durP2;ratioP2
52029;SDS011;38043;53.224;6.580;2023-03-23T00:02:24;22.70;;;10.52;;
52029;SDS011;38043;53.224;6.580;2023-03-23T00:04:51;25.55;;;9.95;;
52029;SDS011;38043;53.224;6.580;2023-03-23T00:07:18;21.25;;;11.30;;
52029;SDS011;38043;53.224;6.580;2023-03-23T00:12:12;28.23;;;14.30;;
52029;SDS011;38043;53.224;6.580;2023-03-23T00:14:40;30.65;;;16.98;;
52029;SDS011;38043;53.224;6.580;2023-03-23T00:17:09;26.52;;;15.90;;
52029;SDS011;38043;53.224;6.580;2023-03-23T00:19:36;39.22;;;20.33;;
52029;SDS011;38043;53.224;6.580;2023-03-23T00:22:11;35.35;;;19.60;;
52029;SDS011;38043;53.224;6.580;2023-03-23T00:24:38;39.80;;;19.92;;
52029;SDS011;38043;53.224;6.580;2023-03-23T00:27:03;40.20;;;18.23;;
52029;SDS011;38043;53.224;6.580;2023-03-23T00:29:29;23.33;;;12.40;;
52029;SDS011;38043;53.224;6.580;2023-03-23T00:31:54;33.78;;;14.35;;
52029;SDS011;38043;53.224;6.580;2023-03-23T00:34:22;36.05;;;14.82;;
52029;SDS011;38043;53.224;6.580;2023-03-23T00:36:50;25.77;;;13.50;;
52029;SDS011;38043;53.224;6.580;2023-03-23T00:39:23;31.85;;;15.18;;
52029;SDS011;38043;53.224;6.580;2023-03-23T00:41:50;29.08;;;18.73;;
52029;SDS011;38043;53.224;6.580;2023-03-23T00:44:16;36.10;;;21.35;;
52029;SDS011;38043;53.224;6.580;2023-03-23T00:46:43;41.78;;;23.60;;
52029;SDS011;38043;53.224;6.580;2023-03-23T00:49:13;38.88;;;21.42;;
52029;SDS011;38043;53.224;6.580;2023-03-23T00:51:40;35.15;;;22.42;;
52029;SDS011;38043;53.224;6.580;2023-03-23T00:54:08;45.80;;;24.55;;
52029;SDS011;38043;53.224;6.580;2023-03-23T00:56:34;41.78;;;24.08;;
52029;SDS011;38043;53.224;6.580;2023-03-23T00:59:00;41.35;;;25.08;;
52029;SDS011;38043;53.224;6.580;2023-03-23T01:01:26;41.30;;;24.80;;
52029;SDS011;38043;53.224;6.580;2023-03-23T01:03:53;36.30;;;21.52;;
52029;SDS011;38043;53.224;6.580;2023-03-23T01:06:26;53.28;;;23.83;;
52029;SDS011;38043;53.224;6.580;2023-03-23T01:08:53;35.75;;;18.83;;
52029;SDS011;38043;53.224;6.580;2023-03-23T01:11:19;18.15;;;12.02;;
52029;SDS011;38043;53.224;6.580;2023-03-23T01:13:45;12.85;;;8.45;;
52029;SDS011;38043;53.224;6.580;2023-03-23T01:16:11;8.45;;;5.97;;
52029;SDS011;38043;53.224;6.580;2023-03-23T01:18:37;8.80;;;5.88;;
52029;SDS011;38043;53.224;6.580;2023-03-23T01:21:07;8.50;;;4.88;;
52029;SDS011;38043;53.224;6.580;2023-03-23T01:23:35;12.15;;;5.05;;
52029;SDS011;38043;53.224;6.580;2023-03-23T01:28:35;7.10;;;4.30;;
52029;SDS011;38043;53.224;6.580;2023-03-23T01:31:04;9.70;;;4.63;;
52029;SDS011;38043;53.224;6.580;2023-03-23T01:33:32;11.20;;;5.47;;
52029;SDS011;38043;53.224;6.580;2023-03-23T01:35:58;11.43;;;6.97;;
52029;SDS011;38043;53.224;6.580;2023-03-23T01:38:28;11.90;;;7.82;;
52029;SDS011;38043;53.224;6.580;2023-03-23T01:40:54;15.43;;;8.43;;
52029;SDS011;38043;53.224;6.580;2023-03-23T01:43:20;22.80;;;11.93;;
52029;SDS011;38043;53.224;6.580;2023-03-23T01:45:46;18.60;;;11.00;;
52029;SDS011;38043;53.224;6.580;2023-03-23T01:50:55;15.45;;;10.18;;
52029;SDS011;38043;53.224;6.580;2023-03-23T01:53:30;21.23;;;11.95;;
52029;SDS011;38043;53.224;6.580;2023-03-23T01:55:59;30.80;;;15.07;;
52029;SDS011;38043;53.224;6.580;2023-03-23T01:58:27;23.55;;;13.52;;
52029;SDS011;38043;53.224;6.580;2023-03-23T02:00:57;26.63;;;15.65;;
52029;SDS011;38043;53.224;6.580;2023-03-23T02:03:26;31.88;;;14.65;;
52029;SDS011;38043;53.224;6.580;2023-03-23T02:05:53;29.20;;;13.95;;
52029;SDS011;38043;53.224;6.580;2023-03-23T02:08:23;23.02;;;13.93;;
52029;SDS011;38043;53.224;6.580;2023-03-23T02:10:52;23.05;;;12.88;;
52029;SDS011;38043;53.224;6.580;2023-03-23T02:13:17;26.50;;;13.30;;
52029;SDS011;38043;53.224;6.580;2023-03-23T02:18:47;31.85;;;14.05;;
52029;SDS011;38043;53.224;6.580;2023-03-23T02:21:58;20.77;;;11.43;;
52029;SDS011;38043;53.224;6.580;2023-03-23T02:24:38;19.43;;;11.03;;
52029;SDS011;38043;53.224;6.580;2023-03-23T02:27:12;20.25;;;11.45;;
52029;SDS011;38043;53.224;6.580;2023-03-23T02:29:46;26.00;;;11.20;;
52029;SDS011;38043;53.224;6.580;2023-03-23T02:35:12;18.35;;;10.02;;
52029;SDS011;38043;53.224;6.580;2023-03-23T02:37:54;27.38;;;11.98;;
52029;SDS011;38043;53.224;6.580;2023-03-23T02:40:25;20.23;;;9.30;;
52029;SDS011;38043;53.224;6.580;2023-03-23T02:42:57;24.48;;;9.75;;
52029;SDS011;38043;53.224;6.580;2023-03-23T02:45:24;18.25;;;9.13;;
52029;SDS011;38043;53.224;6.580;2023-03-23T02:47:53;17.63;;;8.82;;
52029;SDS011;38043;53.224;6.580;2023-03-23T02:50:20;14.40;;;8.07;;
52029;SDS011;38043;53.224;6.580;2023-03-23T02:52:48;19.98;;;9.25;;
52029;SDS011;38043;53.224;6.580;2023-03-23T02:55:15;13.57;;;7.55;;
52029;SDS011;38043;53.224;6.580;2023-03-23T02:57:43;18.75;;;9.48;;
52029;SDS011;38043;53.224;6.580;2023-03-23T03:00:12;17.98;;;8.00;;
52029;SDS011;38043;53.224;6.580;2023-03-23T03:02:41;20.00;;;8.23;;
52029;SDS011;38043;53.224;6.580;2023-03-23T03:08:11;16.23;;;8.07;;
52029;SDS011;38043;53.224;6.580;2023-03-23T03:10:53;15.02;;;6.70;;
52029;SDS011;38043;53.224;6.580;2023-03-23T03:15:57;14.00;;;7.32;;
52029;SDS011;38043;53.224;6.580;2023-03-23T03:18:42;16.02;;;7.53;;
52029;SDS011;38043;53.224;6.580;2023-03-23T03:21:29;14.02;;;7.78;;
52029;SDS011;38043;53.224;6.580;2023-03-23T03:23:58;16.42;;;8.02;;
52029;SDS011;38043;53.224;6.580;2023-03-23T03:26:28;17.83;;;7.25;;
52029;SDS011;38043;53.224;6.580;2023-03-23T03:28:56;16.40;;;6.72;;
52029;SDS011;38043;53.224;6.580;2023-03-23T03:31:23;13.13;;;7.45;;
52029;SDS011;38043;53.224;6.580;2023-03-23T03:33:52;13.25;;;7.03;;
52029;SDS011;38043;53.224;6.580;2023-03-23T03:36:23;13.85;;;6.13;;
52029;SDS011;38043;53.224;6.580;2023-03-23T03:38:52;13.52;;;6.75;;
52029;SDS011;38043;53.224;6.580;2023-03-23T03:41:19;11.95;;;6.07;;
52029;SDS011;38043;53.224;6.580;2023-03-23T03:43:45;13.63;;;6.25;;
52029;SDS011;38043;53.224;6.580;2023-03-23T03:46:10;13.55;;;6.43;;
52029;SDS011;38043;53.224;6.580;2023-03-23T03:48:36;11.32;;;6.57;;
52029;SDS011;38043;53.224;6.580;2023-03-23T03:51:02;14.65;;;6.07;;
52029;SDS011;38043;53.224;6.580;2023-03-23T03:53:28;12.23;;;5.93;;
52029;SDS011;38043;53.224;6.580;2023-03-23T03:55:55;17.67;;;5.97;;
52029;SDS011;38043;53.224;6.580;2023-03-23T03:58:24;17.58;;;6.60;;
52029;SDS011;38043;53.224;6.580;2023-03-23T04:00:56;10.43;;;6.28;;
52029;SDS011;38043;53.224;6.580;2023-03-23T04:03:23;13.63;;;6.32;;
52029;SDS011;38043;53.224;6.580;2023-03-23T04:05:50;19.70;;;6.70;;
52029;SDS011;38043;53.224;6.580;2023-03-23T04:08:16;10.07;;;5.22;;
52029;SDS011;38043;53.224;6.580;2023-03-23T04:10:42;10.13;;;5.00;;
52029;SDS011;38043;53.224;6.580;2023-03-23T04:13:08;12.63;;;5.38;;
52029;SDS011;38043;53.224;6.580;2023-03-23T04:15:34;9.57;;;5.05;;
52029;SDS011;38043;53.224;6.580;2023-03-23T04:17:59;11.77;;;5.38;;
52029;SDS011;38043;53.224;6.580;2023-03-23T04:20:25;11.73;;;4.03;;
52029;SDS011;38043;53.224;6.580;2023-03-23T04:22:51;6.82;;;2.97;;
52029;SDS011;38043;53.224;6.580;2023-03-23T04:25:20;8.90;;;2.78;;
52029;SDS011;38043;53.224;6.580;2023-03-23T04:27:49;5.90;;;2.60;;
52029;SDS011;38043;53.224;6.580;2023-03-23T04:30:18;8.13;;;2.92;;
52029;SDS011;38043;53.224;6.580;2023-03-23T04:32:49;9.43;;;2.85;;
52029;SDS011;38043;53.224;6.580;2023-03-23T04:35:17;6.50;;;2.80;;
52029;SDS011;38043;53.224;6.580;2023-03-23T04:37:44;15.93;;;4.15;;
52029;SDS011;38043;53.224;6.580;2023-03-23T04:40:10;8.73;;;3.70;;
52029;SDS011;38043;53.224;6.580;2023-03-23T04:42:39;9.10;;;3.25;;
52029;SDS011;38043;53.224;6.580;2023-03-23T04:45:10;10.27;;;2.97;;
52029;SDS011;38043;53.224;6.580;2023-03-23T04:47:38;8.70;;;3.58;;
52029;SDS011;38043;53.224;6.580;2023-03-23T04:50:10;11.98;;;3.88;;
52029;SDS011;38043;53.224;6.580;2023-03-23T04:52:40;10.18;;;3.10;;
52029;SDS011;38043;53.224;6.580;2023-03-23T04:55:10;9.60;;;3.00;;
52029;SDS011;38043;53.224;6.580;2023-03-23T04:57:37;10.00;;;3.13;;
52029;SDS011;38043;53.224;6.580;2023-03-23T05:00:03;11.93;;;2.80;;
52029;SDS011;38043;53.224;6.580;2023-03-23T05:02:36;10.02;;;3.20;;
52029;SDS011;38043;53.224;6.580;2023-03-23T05:05:05;10.18;;;3.03;;
52029;SDS011;38043;53.224;6.580;2023-03-23T05:07:31;14.25;;;3.55;;
52029;SDS011;38043;53.224;6.580;2023-03-23T05:09:57;15.23;;;3.72;;
52029;SDS011;38043;53.224;6.580;2023-03-23T05:12:22;10.40;;;2.90;;
52029;SDS011;38043;53.224;6.580;2023-03-23T05:14:48;13.05;;;3.40;;
52029;SDS011;38043;53.224;6.580;2023-03-23T05:17:14;9.10;;;3.22;;
52029;SDS011;38043;53.224;6.580;2023-03-23T05:19:42;12.35;;;3.92;;
52029;SDS011;38043;53.224;6.580;2023-03-23T05:22:17;17.52;;;4.10;;
52029;SDS011;38043;53.224;6.580;2023-03-23T05:24:42;16.00;;;4.72;;
52029;SDS011;38043;53.224;6.580;2023-03-23T05:27:09;14.10;;;4.28;;
52029;SDS011;38043;53.224;6.580;2023-03-23T05:29:35;22.92;;;7.63;;
52029;SDS011;38043;53.224;6.580;2023-03-23T05:32:04;11.90;;;5.50;;
52029;SDS011;38043;53.224;6.580;2023-03-23T05:34:31;12.10;;;5.43;;
52029;SDS011;38043;53.224;6.580;2023-03-23T05:36:59;22.20;;;6.13;;
52029;SDS011;38043;53.224;6.580;2023-03-23T05:39:30;14.83;;;5.27;;
52029;SDS011;38043;53.224;6.580;2023-03-23T05:41:57;22.45;;;5.43;;
52029;SDS011;38043;53.224;6.580;2023-03-23T05:44:23;17.55;;;5.45;;
52029;SDS011;38043;53.224;6.580;2023-03-23T05:46:49;21.95;;;5.85;;
52029;SDS011;38043;53.224;6.580;2023-03-23T05:49:15;21.58;;;5.05;;
52029;SDS011;38043;53.224;6.580;2023-03-23T05:51:42;21.10;;;5.90;;
52029;SDS011;38043;53.224;6.580;2023-03-23T05:54:09;22.63;;;4.40;;
52029;SDS011;38043;53.224;6.580;2023-03-23T05:56:35;21.05;;;4.15;;
52029;SDS011;38043;53.224;6.580;2023-03-23T05:59:01;36.85;;;5.80;;
52029;SDS011;38043;53.224;6.580;2023-03-23T06:01:27;27.65;;;4.60;;
52029;SDS011;38043;53.224;6.580;2023-03-23T06:03:53;30.52;;;5.72;;
52029;SDS011;38043;53.224;6.580;2023-03-23T06:06:23;33.55;;;5.07;;
52029;SDS011;38043;53.224;6.580;2023-03-23T06:08:54;27.52;;;4.90;;
52029;SDS011;38043;53.224;6.580;2023-03-23T06:11:22;29.95;;;4.57;;
52029;SDS011;38043;53.224;6.580;2023-03-23T06:13:49;27.27;;;4.47;;
52029;SDS011;38043;53.224;6.580;2023-03-23T06:16:15;28.35;;;4.75;;
52029;SDS011;38043;53.224;6.580;2023-03-23T06:18:41;27.15;;;5.05;;
52029;SDS011;38043;53.224;6.580;2023-03-23T06:21:08;25.45;;;5.00;;
52029;SDS011;38043;53.224;6.580;2023-03-23T06:23:34;25.98;;;5.15;;
52029;SDS011;38043;53.224;6.580;2023-03-23T06:26:01;31.88;;;4.40;;
52029;SDS011;38043;53.224;6.580;2023-03-23T06:28:30;30.67;;;5.88;;
52029;SDS011;38043;53.224;6.580;2023-03-23T06:31:00;28.08;;;5.00;;
52029;SDS011;38043;53.224;6.580;2023-03-23T06:33:27;33.20;;;5.05;;
52029;SDS011;38043;53.224;6.580;2023-03-23T06:35:53;25.75;;;4.88;;
52029;SDS011;38043;53.224;6.580;2023-03-23T06:38:19;29.40;;;5.20;;
52029;SDS011;38043;53.224;6.580;2023-03-23T06:40:44;36.55;;;6.70;;
52029;SDS011;38043;53.224;6.580;2023-03-23T06:43:12;27.10;;;4.97;;
52029;SDS011;38043;53.224;6.580;2023-03-23T06:45:38;23.50;;;5.10;;
52029;SDS011;38043;53.224;6.580;2023-03-23T06:48:04;32.83;;;4.47;;
52029;SDS011;38043;53.224;6.580;2023-03-23T06:50:30;29.38;;;4.65;;
52029;SDS011;38043;53.224;6.580;2023-03-23T06:52:56;16.58;;;2.95;;
52029;SDS011;38043;53.224;6.580;2023-03-23T06:55:22;17.15;;;3.08;;
52029;SDS011;38043;53.224;6.580;2023-03-23T06:57:47;17.77;;;3.25;;
52029;SDS011;38043;53.224;6.580;2023-03-23T07:00:13;15.88;;;3.35;;
52029;SDS011;38043;53.224;6.580;2023-03-23T07:02:40;15.80;;;3.53;;
52029;SDS011;38043;53.224;6.580;2023-03-23T07:05:06;15.70;;;2.95;;
52029;SDS011;38043;53.224;6.580;2023-03-23T07:07:34;10.27;;;2.55;;
52029;SDS011;38043;53.224;6.580;2023-03-23T07:10:00;15.85;;;3.20;;
52029;SDS011;38043;53.224;6.580;2023-03-23T07:12:26;15.23;;;3.13;;
52029;SDS011;38043;53.224;6.580;2023-03-23T07:14:52;13.40;;;2.90;;
52029;SDS011;38043;53.224;6.580;2023-03-23T07:17:17;10.98;;;2.63;;
52029;SDS011;38043;53.224;6.580;2023-03-23T07:19:43;14.73;;;2.88;;
52029;SDS011;38043;53.224;6.580;2023-03-23T07:22:09;23.25;;;4.05;;
52029;SDS011;38043;53.224;6.580;2023-03-23T07:24:35;22.25;;;4.10;;
52029;SDS011;38043;53.224;6.580;2023-03-23T07:27:00;16.55;;;4.03;;
52029;SDS011;38043;53.224;6.580;2023-03-23T07:29:26;23.95;;;4.97;;
52029;SDS011;38043;53.224;6.580;2023-03-23T07:31:52;19.60;;;4.03;;
52029;SDS011;38043;53.224;6.580;2023-03-23T07:34:18;21.10;;;4.13;;
52029;SDS011;38043;53.224;6.580;2023-03-23T07:36:44;24.70;;;5.00;;
52029;SDS011;38043;53.224;6.580;2023-03-23T07:39:10;20.88;;;4.63;;
52029;SDS011;38043;53.224;6.580;2023-03-23T07:41:37;27.10;;;5.07;;
52029;SDS011;38043;53.224;6.580;2023-03-23T07:44:03;32.20;;;5.45;;
52029;SDS011;38043;53.224;6.580;2023-03-23T07:46:29;30.90;;;5.05;;
52029;SDS011;38043;53.224;6.580;2023-03-23T07:48:55;35.58;;;6.63;;
52029;SDS011;38043;53.224;6.580;2023-03-23T07:51:21;29.10;;;5.38;;
52029;SDS011;38043;53.224;6.580;2023-03-23T07:53:47;38.33;;;6.10;;
52029;SDS011;38043;53.224;6.580;2023-03-23T07:56:15;36.75;;;6.93;;
52029;SDS011;38043;53.224;6.580;2023-03-23T07:58:44;31.27;;;5.88;;
52029;SDS011;38043;53.224;6.580;2023-03-23T08:01:12;31.73;;;6.97;;
52029;SDS011;38043;53.224;6.580;2023-03-23T08:03:38;32.55;;;5.82;;
52029;SDS011;38043;53.224;6.580;2023-03-23T08:06:04;29.02;;;5.88;;
52029;SDS011;38043;53.224;6.580;2023-03-23T08:08:30;30.75;;;5.90;;
52029;SDS011;38043;53.224;6.580;2023-03-23T08:10:56;44.58;;;6.47;;
52029;SDS011;38043;53.224;6.580;2023-03-23T08:13:22;35.42;;;6.03;;
52029;SDS011;38043;53.224;6.580;2023-03-23T08:15:48;37.17;;;6.20;;
52029;SDS011;38043;53.224;6.580;2023-03-23T08:18:14;34.78;;;6.50;;
52029;SDS011;38043;53.224;6.580;2023-03-23T08:20:40;34.60;;;5.97;;
52029;SDS011;38043;53.224;6.580;2023-03-23T08:23:06;42.17;;;6.10;;
52029;SDS011;38043;53.224;6.580;2023-03-23T08:25:32;37.20;;;6.75;;
52029;SDS011;38043;53.224;6.580;2023-03-23T08:27:58;37.58;;;6.80;;
52029;SDS011;38043;53.224;6.580;2023-03-23T08:30:26;34.75;;;6.05;;
52029;SDS011;38043;53.224;6.580;2023-03-23T08:32:55;43.00;;;6.25;;
52029;SDS011;38043;53.224;6.580;2023-03-23T08:35:21;31.25;;;6.00;;
52029;SDS011;38043;53.224;6.580;2023-03-23T08:37:48;36.85;;;5.68;;
52029;SDS011;38043;53.224;6.580;2023-03-23T08:40:19;33.80;;;7.10;;
52029;SDS011;38043;53.224;6.580;2023-03-23T08:42:47;36.53;;;6.55;;
52029;SDS011;38043;53.224;6.580;2023-03-23T08:45:15;38.93;;;6.20;;
52029;SDS011;38043;53.224;6.580;2023-03-23T08:47:46;39.65;;;7.43;;
52029;SDS011;38043;53.224;6.580;2023-03-23T08:50:17;33.53;;;5.65;;
52029;SDS011;38043;53.224;6.580;2023-03-23T08:52:44;41.70;;;6.65;;
52029;SDS011;38043;53.224;6.580;2023-03-23T08:55:11;34.28;;;5.65;;
52029;SDS011;38043;53.224;6.580;2023-03-23T08:57:37;38.58;;;6.70;;
52029;SDS011;38043;53.224;6.580;2023-03-23T09:00:04;29.17;;;5.78;;
52029;SDS011;38043;53.224;6.580;2023-03-23T09:02:48;33.10;;;6.00;;
52029;SDS011;38043;53.224;6.580;2023-03-23T09:05:16;38.00;;;5.97;;
52029;SDS011;38043;53.224;6.580;2023-03-23T09:07:45;34.15;;;7.30;;
52029;SDS011;38043;53.224;6.580;2023-03-23T09:10:13;32.38;;;5.60;;
52029;SDS011;38043;53.224;6.580;2023-03-23T09:12:39;37.13;;;6.55;;
52029;SDS011;38043;53.224;6.580;2023-03-23T09:15:06;34.10;;;6.05;;
52029;SDS011;38043;53.224;6.580;2023-03-23T09:17:52;28.80;;;5.35;;
52029;SDS011;38043;53.224;6.580;2023-03-23T09:20:20;34.35;;;7.05;;
52029;SDS011;38043;53.224;6.580;2023-03-23T09:22:49;36.03;;;7.25;;
52029;SDS011;38043;53.224;6.580;2023-03-23T09:25:17;33.25;;;5.82;;
52029;SDS011;38043;53.224;6.580;2023-03-23T09:27:46;28.58;;;5.28;;
52029;SDS011;38043;53.224;6.580;2023-03-23T09:30:17;32.58;;;6.25;;
52029;SDS011;38043;53.224;6.580;2023-03-23T09:32:44;30.92;;;5.35;;
52029;SDS011;38043;53.224;6.580;2023-03-23T09:35:10;31.88;;;5.85;;
52029;SDS011;38043;53.224;6.580;2023-03-23T09:40:05;33.60;;;5.70;;
52029;SDS011;38043;53.224;6.580;2023-03-23T09:45:23;37.15;;;6.40;;
52029;SDS011;38043;53.224;6.580;2023-03-23T09:50:52;32.35;;;6.03;;
52029;SDS011;38043;53.224;6.580;2023-03-23T09:53:44;27.05;;;5.78;;
52029;SDS011;38043;53.224;6.580;2023-03-23T09:56:15;29.65;;;5.25;;
52029;SDS011;38043;53.224;6.580;2023-03-23T09:58:51;27.75;;;5.55;;
52029;SDS011;38043;53.224;6.580;2023-03-23T10:01:25;28.50;;;5.80;;
52029;SDS011;38043;53.224;6.580;2023-03-23T10:07:12;24.10;;;5.18;;
52029;SDS011;38043;53.224;6.580;2023-03-23T10:12:14;24.20;;;5.35;;
52029;SDS011;38043;53.224;6.580;2023-03-23T10:15:16;29.98;;;5.43;;
52029;SDS011;38043;53.224;6.580;2023-03-23T10:17:59;24.77;;;4.47;;
52029;SDS011;38043;53.224;6.580;2023-03-23T10:26:13;25.80;;;5.78;;
52029;SDS011;38043;53.224;6.580;2023-03-23T10:28:43;26.52;;;5.00;;
52029;SDS011;38043;53.224;6.580;2023-03-23T10:31:16;22.13;;;4.57;;
52029;SDS011;38043;53.224;6.580;2023-03-23T10:33:49;34.42;;;5.13;;
52029;SDS011;38043;53.224;6.580;2023-03-23T10:39:32;17.88;;;4.38;;
52029;SDS011;38043;53.224;6.580;2023-03-23T10:42:11;22.58;;;4.95;;
52029;SDS011;38043;53.224;6.580;2023-03-23T10:44:37;31.10;;;5.53;;
52029;SDS011;38043;53.224;6.580;2023-03-23T10:47:07;40.72;;;6.80;;
52029;SDS011;38043;53.224;6.580;2023-03-23T10:49:43;32.03;;;5.90;;
52029;SDS011;38043;53.224;6.580;2023-03-23T10:52:33;30.13;;;5.75;;
52029;SDS011;38043;53.224;6.580;2023-03-23T10:57:37;26.25;;;5.53;;
52029;SDS011;38043;53.224;6.580;2023-03-23T11:00:06;31.85;;;5.75;;
52029;SDS011;38043;53.224;6.580;2023-03-23T11:07:40;21.73;;;4.82;;
52029;SDS011;38043;53.224;6.580;2023-03-23T11:10:22;29.90;;;6.25;;
52029;SDS011;38043;53.224;6.580;2023-03-23T11:12:53;27.08;;;6.30;;
52029;SDS011;38043;53.224;6.580;2023-03-23T11:18:05;24.77;;;6.22;;
52029;SDS011;38043;53.224;6.580;2023-03-23T11:20:36;26.60;;;4.80;;
52029;SDS011;38043;53.224;6.580;2023-03-23T11:23:08;24.80;;;4.70;;
52029;SDS011;38043;53.224;6.580;2023-03-23T11:25:59;20.17;;;5.10;;
52029;SDS011;38043;53.224;6.580;2023-03-23T11:28:36;17.83;;;4.55;;
52029;SDS011;38043;53.224;6.580;2023-03-23T11:31:07;18.40;;;4.57;;
52029;SDS011;38043;53.224;6.580;2023-03-23T11:36:17;22.02;;;4.57;;
52029;SDS011;38043;53.224;6.580;2023-03-23T11:38:43;18.80;;;4.22;;
52029;SDS011;38043;53.224;6.580;2023-03-23T11:41:12;24.45;;;4.43;;
52029;SDS011;38043;53.224;6.580;2023-03-23T11:43:44;22.63;;;4.15;;
52029;SDS011;38043;53.224;6.580;2023-03-23T11:46:15;23.15;;;5.20;;
52029;SDS011;38043;53.224;6.580;2023-03-23T11:48:56;20.42;;;4.80;;
52029;SDS011;38043;53.224;6.580;2023-03-23T11:54:15;17.73;;;3.55;;
52029;SDS011;38043;53.224;6.580;2023-03-23T11:57:05;15.90;;;3.95;;
52029;SDS011;38043;53.224;6.580;2023-03-23T11:59:35;12.02;;;3.10;;
52029;SDS011;38043;53.224;6.580;2023-03-23T12:10:39;12.77;;;3.42;;
52029;SDS011;38043;53.224;6.580;2023-03-23T12:21:48;14.30;;;3.08;;
52029;SDS011;38043;53.224;6.580;2023-03-23T12:40:39;13.23;;;3.22;;
52029;SDS011;38043;53.224;6.580;2023-03-23T12:48:55;15.20;;;3.45;;
52029;SDS011;38043;53.224;6.580;2023-03-23T12:51:24;14.90;;;3.63;;
52029;SDS011;38043;53.224;6.580;2023-03-23T12:54:03;13.10;;;3.40;;
52029;SDS011;38043;53.224;6.580;2023-03-23T12:57:10;12.43;;;3.35;;
52029;SDS011;38043;53.224;6.580;2023-03-23T13:02:22;17.63;;;3.00;;
52029;SDS011;38043;53.224;6.580;2023-03-23T13:05:11;15.07;;;3.50;;
52029;SDS011;38043;53.224;6.580;2023-03-23T13:07:58;15.32;;;3.28;;
52029;SDS011;38043;53.224;6.580;2023-03-23T13:10:35;12.48;;;3.20;;
52029;SDS011;38043;53.224;6.580;2023-03-23T13:13:13;14.63;;;3.55;;
52029;SDS011;38043;53.224;6.580;2023-03-23T13:15:59;13.95;;;3.63;;
52029;SDS011;38043;53.224;6.580;2023-03-23T13:18:46;15.50;;;3.28;;
52029;SDS011;38043;53.224;6.580;2023-03-23T13:23:49;20.05;;;4.25;;
52029;SDS011;38043;53.224;6.580;2023-03-23T13:26:20;18.95;;;4.88;;
52029;SDS011;38043;53.224;6.580;2023-03-23T13:34:04;15.23;;;3.75;;
52029;SDS011;38043;53.224;6.580;2023-03-23T13:36:38;18.20;;;3.65;;
52029;SDS011;38043;53.224;6.580;2023-03-23T13:39:15;16.42;;;4.18;;
52029;SDS011;38043;53.224;6.580;2023-03-23T13:41:59;19.63;;;4.18;;
52029;SDS011;38043;53.224;6.580;2023-03-23T13:44:39;17.90;;;4.13;;
52029;SDS011;38043;53.224;6.580;2023-03-23T13:47:15;26.55;;;3.72;;
52029;SDS011;38043;53.224;6.580;2023-03-23T13:52:23;17.55;;;4.22;;
52029;SDS011;38043;53.224;6.580;2023-03-23T13:57:57;20.15;;;3.85;;
52029;SDS011;38043;53.224;6.580;2023-03-23T14:03:19;22.95;;;4.78;;
52029;SDS011;38043;53.224;6.580;2023-03-23T14:06:07;18.63;;;3.58;;
52029;SDS011;38043;53.224;6.580;2023-03-23T14:08:39;18.40;;;4.57;;
52029;SDS011;38043;53.224;6.580;2023-03-23T14:11:14;17.63;;;4.22;;
52029;SDS011;38043;53.224;6.580;2023-03-23T14:14:07;17.08;;;3.58;;
52029;SDS011;38043;53.224;6.580;2023-03-23T14:17:05;20.33;;;4.20;;
52029;SDS011;38043;53.224;6.580;2023-03-23T14:19:37;17.30;;;3.75;;
52029;SDS011;38043;53.224;6.580;2023-03-23T14:22:04;19.42;;;4.60;;
52029;SDS011;38043;53.224;6.580;2023-03-23T14:24:52;16.00;;;3.95;;
52029;SDS011;38043;53.224;6.580;2023-03-23T14:27:26;20.15;;;4.35;;
52029;SDS011;38043;53.224;6.580;2023-03-23T14:29:59;18.73;;;3.28;;
52029;SDS011;38043;53.224;6.580;2023-03-23T14:32:30;14.55;;;3.25;;
52029;SDS011;38043;53.224;6.580;2023-03-23T14:34:57;18.17;;;4.00;;
52029;SDS011;38043;53.224;6.580;2023-03-23T14:37:25;19.10;;;4.90;;
52029;SDS011;38043;53.224;6.580;2023-03-23T14:39:52;17.63;;;4.07;;
52029;SDS011;38043;53.224;6.580;2023-03-23T14:42:21;17.50;;;4.07;;
52029;SDS011;38043;53.224;6.580;2023-03-23T14:44:54;16.88;;;3.83;;
52029;SDS011;38043;53.224;6.580;2023-03-23T14:47:22;16.17;;;3.58;;
52029;SDS011;38043;53.224;6.580;2023-03-23T14:49:56;14.23;;;3.15;;
52029;SDS011;38043;53.224;6.580;2023-03-23T14:52:25;12.77;;;3.40;;
52029;SDS011;38043;53.224;6.580;2023-03-23T14:55:10;15.35;;;3.25;;
52029;SDS011;38043;53.224;6.580;2023-03-23T14:57:39;16.67;;;3.33;;
52029;SDS011;38043;53.224;6.580;2023-03-23T15:00:16;14.68;;;3.53;;
52029;SDS011;38043;53.224;6.580;2023-03-23T15:02:47;10.80;;;2.80;;
52029;SDS011;38043;53.224;6.580;2023-03-23T15:05:18;12.45;;;3.25;;
52029;SDS011;38043;53.224;6.580;2023-03-23T15:07:48;12.10;;;3.25;;
52029;SDS011;38043;53.224;6.580;2023-03-23T15:10:19;17.98;;;2.95;;
52029;SDS011;38043;53.224;6.580;2023-03-23T15:12:46;13.57;;;3.20;;
52029;SDS011;38043;53.224;6.580;2023-03-23T15:17:57;12.02;;;3.67;;
52029;SDS011;38043;53.224;6.580;2023-03-23T15:20:27;13.80;;;2.90;;
52029;SDS011;38043;53.224;6.580;2023-03-23T15:22:55;13.57;;;3.20;;
52029;SDS011;38043;53.224;6.580;2023-03-23T15:30:33;15.77;;;3.25;;
52029;SDS011;38043;53.224;6.580;2023-03-23T15:33:03;10.82;;;2.50;;
52029;SDS011;38043;53.224;6.580;2023-03-23T15:35:36;14.82;;;2.97;;
52029;SDS011;38043;53.224;6.580;2023-03-23T15:38:04;12.48;;;3.15;;
52029;SDS011;38043;53.224;6.580;2023-03-23T15:40:35;14.07;;;3.10;;
52029;SDS011;38043;53.224;6.580;2023-03-23T15:43:15;10.38;;;2.80;;
52029;SDS011;38043;53.224;6.580;2023-03-23T15:46:01;13.95;;;2.42;;
52029;SDS011;38043;53.224;6.580;2023-03-23T15:48:30;12.40;;;2.92;;
52029;SDS011;38043;53.224;6.580;2023-03-23T15:53:31;13.93;;;2.78;;
52029;SDS011;38043;53.224;6.580;2023-03-23T15:55:59;13.80;;;3.70;;
52029;SDS011;38043;53.224;6.580;2023-03-23T15:58:26;17.30;;;4.43;;
52029;SDS011;38043;53.224;6.580;2023-03-23T16:00:52;19.38;;;3.40;;
52029;SDS011;38043;53.224;6.580;2023-03-23T16:03:27;16.33;;;3.47;;
52029;SDS011;38043;53.224;6.580;2023-03-23T16:05:59;20.02;;;4.88;;
52029;SDS011;38043;53.224;6.580;2023-03-23T16:10:53;21.70;;;3.83;;
52029;SDS011;38043;53.224;6.580;2023-03-23T16:13:18;19.80;;;4.00;;
52029;SDS011;38043;53.224;6.580;2023-03-23T16:15:45;15.55;;;3.55;;
52029;SDS011;38043;53.224;6.580;2023-03-23T16:18:17;23.40;;;4.03;;
52029;SDS011;38043;53.224;6.580;2023-03-23T16:20:45;18.75;;;3.97;;
52029;SDS011;38043;53.224;6.580;2023-03-23T16:23:12;17.15;;;3.72;;
52029;SDS011;38043;53.224;6.580;2023-03-23T16:25:37;21.02;;;4.43;;
52029;SDS011;38043;53.224;6.580;2023-03-23T16:28:03;17.58;;;3.97;;
52029;SDS011;38043;53.224;6.580;2023-03-23T16:30:31;17.20;;;4.03;;
52029;SDS011;38043;53.224;6.580;2023-03-23T16:32:58;17.85;;;3.55;;
52029;SDS011;38043;53.224;6.580;2023-03-23T16:35:24;14.38;;;3.60;;
52029;SDS011;38043;53.224;6.580;2023-03-23T16:37:50;21.35;;;4.70;;
52029;SDS011;38043;53.224;6.580;2023-03-23T16:40:18;21.23;;;4.40;;
52029;SDS011;38043;53.224;6.580;2023-03-23T16:42:45;17.95;;;3.92;;
52029;SDS011;38043;53.224;6.580;2023-03-23T16:45:11;28.00;;;4.88;;
52029;SDS011;38043;53.224;6.580;2023-03-23T16:47:38;25.33;;;4.00;;
52029;SDS011;38043;53.224;6.580;2023-03-23T16:50:05;19.33;;;3.65;;
52029;SDS011;38043;53.224;6.580;2023-03-23T16:52:32;17.40;;;4.38;;
52029;SDS011;38043;53.224;6.580;2023-03-23T16:54:58;20.65;;;5.20;;
52029;SDS011;38043;53.224;6.580;2023-03-23T16:57:24;20.75;;;5.07;;
52029;SDS011;38043;53.224;6.580;2023-03-23T16:59:51;17.83;;;4.30;;